sensor_id;sensor_type;location;lat;lon;timestamp;P1;durP1;ratioP1;P2;durP2;ratioP2
26540;SDS011;14206;50.202;10.948;2023-05-07T00:01:34;8.55;;;7.53;;
26540;SDS011;14206;50.202;10.948;2023-05-07T00:04:01;9.30;;;8.30;;
26540;SDS011;14206;50.202;10.948;2023-05-07T00:10:05;9.90;;;8.90;;
26540;SDS011;14206;50.202;10.948;2023-05-07T00:12:33;10.60;;;9.50;;
26540;SDS011;14206;50.202;10.948;2023-05-07T00:15:01;10.25;;;9.23;;
26540;SDS011;14206;50.202;10.948;2023-05-07T00:17:29;9.52;;;8.45;;
26540;SDS011;14206;50.202;10.948;2023-05-07T00:19:56;11.10;;;9.93;;
26540;SDS011;14206;50.202;10.948;2023-05-07T00:22:23;9.27;;;8.15;;
26540;SDS011;14206;50.202;10.948;2023-05-07T00:24:50;11.68;;;9.98;;
26540;SDS011;14206;50.202;10.948;2023-05-07T00:27:16;10.07;;;9.07;;
26540;SDS011;14206;50.202;10.948;2023-05-07T00:29:43;11.15;;;9.95;;
26540;SDS011;14206;50.202;10.948;2023-05-07T00:32:10;11.23;;;10.13;;
26540;SDS011;14206;50.202;10.948;2023-05-07T00:34:37;9.40;;;8.40;;
26540;SDS011;14206;50.202;10.948;2023-05-07T00:37:05;11.98;;;10.13;;
26540;SDS011;14206;50.202;10.948;2023-05-07T00:39:34;16.02;;;12.02;;
26540;SDS011;14206;50.202;10.948;2023-05-07T00:42:02;11.35;;;9.57;;
26540;SDS011;14206;50.202;10.948;2023-05-07T00:44:29;10.20;;;9.10;;
26540;SDS011;14206;50.202;10.948;2023-05-07T00:46:59;8.63;;;7.65;;
26540;SDS011;14206;50.202;10.948;2023-05-07T00:49:39;12.27;;;10.25;;
26540;SDS011;14206;50.202;10.948;2023-05-07T00:52:12;14.98;;;12.70;;
26540;SDS011;14206;50.202;10.948;2023-05-07T00:54:44;12.82;;;11.10;;
26540;SDS011;14206;50.202;10.948;2023-05-07T00:57:17;11.77;;;10.43;;
26540;SDS011;14206;50.202;10.948;2023-05-07T00:59:45;14.60;;;11.52;;
26540;SDS011;14206;50.202;10.948;2023-05-07T01:02:12;10.32;;;9.23;;
26540;SDS011;14206;50.202;10.948;2023-05-07T01:04:39;12.55;;;11.18;;
26540;SDS011;14206;50.202;10.948;2023-05-07T01:07:07;12.60;;;10.07;;
26540;SDS011;14206;50.202;10.948;2023-05-07T01:09:34;12.18;;;10.98;;
26540;SDS011;14206;50.202;10.948;2023-05-07T01:12:05;14.55;;;12.90;;
26540;SDS011;14206;50.202;10.948;2023-05-07T01:14:33;10.95;;;9.57;;
26540;SDS011;14206;50.202;10.948;2023-05-07T01:17:00;14.07;;;12.52;;
26540;SDS011;14206;50.202;10.948;2023-05-07T01:19:28;16.13;;;12.20;;
26540;SDS011;14206;50.202;10.948;2023-05-07T01:22:01;12.32;;;10.73;;
26540;SDS011;14206;50.202;10.948;2023-05-07T01:24:35;14.63;;;12.55;;
26540;SDS011;14206;50.202;10.948;2023-05-07T01:27:04;11.48;;;10.27;;
26540;SDS011;14206;50.202;10.948;2023-05-07T01:29:32;11.32;;;10.13;;
26540;SDS011;14206;50.202;10.948;2023-05-07T01:32:00;12.50;;;10.88;;
26540;SDS011;14206;50.202;10.948;2023-05-07T01:34:30;15.68;;;13.98;;
26540;SDS011;14206;50.202;10.948;2023-05-07T01:36:58;13.20;;;11.80;;
26540;SDS011;14206;50.202;10.948;2023-05-07T01:39:26;14.77;;;10.77;;
26540;SDS011;14206;50.202;10.948;2023-05-07T01:41:57;12.65;;;11.35;;
26540;SDS011;14206;50.202;10.948;2023-05-07T01:44:40;14.82;;;13.23;;
26540;SDS011;14206;50.202;10.948;2023-05-07T01:47:07;13.63;;;11.82;;
26540;SDS011;14206;50.202;10.948;2023-05-07T01:49:35;16.77;;;13.40;;
26540;SDS011;14206;50.202;10.948;2023-05-07T01:52:02;14.15;;;12.75;;
26540;SDS011;14206;50.202;10.948;2023-05-07T01:54:29;20.23;;;15.60;;
26540;SDS011;14206;50.202;10.948;2023-05-07T01:56:58;14.35;;;11.95;;
26540;SDS011;14206;50.202;10.948;2023-05-07T01:59:26;15.45;;;13.23;;
26540;SDS011;14206;50.202;10.948;2023-05-07T02:01:53;12.15;;;10.85;;
26540;SDS011;14206;50.202;10.948;2023-05-07T02:04:19;13.88;;;12.00;;
26540;SDS011;14206;50.202;10.948;2023-05-07T02:06:47;14.70;;;12.55;;
26540;SDS011;14206;50.202;10.948;2023-05-07T02:09:26;17.08;;;15.25;;
26540;SDS011;14206;50.202;10.948;2023-05-07T02:11:53;14.82;;;12.75;;
26540;SDS011;14206;50.202;10.948;2023-05-07T02:14:21;16.52;;;14.77;;
26540;SDS011;14206;50.202;10.948;2023-05-07T02:16:48;14.77;;;13.05;;
26540;SDS011;14206;50.202;10.948;2023-05-07T02:19:15;17.83;;;15.50;;
26540;SDS011;14206;50.202;10.948;2023-05-07T02:21:41;16.42;;;13.75;;
26540;SDS011;14206;50.202;10.948;2023-05-07T02:24:08;14.85;;;12.65;;
26540;SDS011;14206;50.202;10.948;2023-05-07T02:26:35;15.90;;;12.55;;
26540;SDS011;14206;50.202;10.948;2023-05-07T02:29:02;14.90;;;13.30;;
26540;SDS011;14206;50.202;10.948;2023-05-07T02:31:30;12.95;;;11.23;;
26540;SDS011;14206;50.202;10.948;2023-05-07T02:33:57;16.50;;;13.35;;
26540;SDS011;14206;50.202;10.948;2023-05-07T02:36:23;12.93;;;11.18;;
26540;SDS011;14206;50.202;10.948;2023-05-07T02:38:56;12.52;;;11.23;;
26540;SDS011;14206;50.202;10.948;2023-05-07T02:41:23;12.77;;;11.13;;
26540;SDS011;14206;50.202;10.948;2023-05-07T02:43:50;11.75;;;10.52;;
26540;SDS011;14206;50.202;10.948;2023-05-07T02:46:17;13.32;;;11.23;;
26540;SDS011;14206;50.202;10.948;2023-05-07T02:48:48;16.73;;;12.75;;
26540;SDS011;14206;50.202;10.948;2023-05-07T02:51:17;14.63;;;12.05;;
26540;SDS011;14206;50.202;10.948;2023-05-07T02:53:52;15.05;;;12.40;;
26540;SDS011;14206;50.202;10.948;2023-05-07T02:56:20;15.90;;;12.77;;
26540;SDS011;14206;50.202;10.948;2023-05-07T02:58:47;14.77;;;12.43;;
26540;SDS011;14206;50.202;10.948;2023-05-07T03:01:15;13.38;;;11.77;;
26540;SDS011;14206;50.202;10.948;2023-05-07T03:03:52;14.45;;;11.30;;
26540;SDS011;14206;50.202;10.948;2023-05-07T03:06:19;18.13;;;15.20;;
26540;SDS011;14206;50.202;10.948;2023-05-07T03:08:45;14.00;;;12.27;;
26540;SDS011;14206;50.202;10.948;2023-05-07T03:11:12;14.48;;;12.10;;
26540;SDS011;14206;50.202;10.948;2023-05-07T03:13:39;14.48;;;11.77;;
26540;SDS011;14206;50.202;10.948;2023-05-07T03:16:06;15.68;;;12.75;;
26540;SDS011;14206;50.202;10.948;2023-05-07T03:18:33;13.20;;;10.90;;
26540;SDS011;14206;50.202;10.948;2023-05-07T03:21:00;14.98;;;12.52;;
26540;SDS011;14206;50.202;10.948;2023-05-07T03:23:27;12.55;;;11.23;;
26540;SDS011;14206;50.202;10.948;2023-05-07T03:25:53;18.05;;;14.95;;
26540;SDS011;14206;50.202;10.948;2023-05-07T03:28:20;14.48;;;12.40;;
26540;SDS011;14206;50.202;10.948;2023-05-07T03:30:52;13.27;;;11.75;;
26540;SDS011;14206;50.202;10.948;2023-05-07T03:33:19;17.13;;;13.57;;
26540;SDS011;14206;50.202;10.948;2023-05-07T03:35:47;15.80;;;12.88;;
26540;SDS011;14206;50.202;10.948;2023-05-07T03:38:19;13.98;;;12.07;;
26540;SDS011;14206;50.202;10.948;2023-05-07T03:40:46;20.10;;;16.10;;
26540;SDS011;14206;50.202;10.948;2023-05-07T03:43:12;17.00;;;14.32;;
26540;SDS011;14206;50.202;10.948;2023-05-07T03:45:44;12.93;;;10.93;;
26540;SDS011;14206;50.202;10.948;2023-05-07T03:48:18;14.32;;;12.23;;
26540;SDS011;14206;50.202;10.948;2023-05-07T03:50:46;13.63;;;11.73;;
26540;SDS011;14206;50.202;10.948;2023-05-07T03:53:15;14.60;;;11.32;;
26540;SDS011;14206;50.202;10.948;2023-05-07T03:55:42;12.25;;;10.95;;
26540;SDS011;14206;50.202;10.948;2023-05-07T03:58:09;13.43;;;11.38;;
26540;SDS011;14206;50.202;10.948;2023-05-07T04:00:36;13.95;;;11.13;;
26540;SDS011;14206;50.202;10.948;2023-05-07T04:03:21;13.88;;;12.18;;
26540;SDS011;14206;50.202;10.948;2023-05-07T04:05:49;12.65;;;11.05;;
26540;SDS011;14206;50.202;10.948;2023-05-07T04:08:15;15.10;;;12.48;;
26540;SDS011;14206;50.202;10.948;2023-05-07T04:10:48;16.13;;;13.23;;
26540;SDS011;14206;50.202;10.948;2023-05-07T04:13:20;16.38;;;13.85;;
26540;SDS011;14206;50.202;10.948;2023-05-07T04:15:47;14.93;;;13.10;;
26540;SDS011;14206;50.202;10.948;2023-05-07T04:18:17;15.45;;;12.05;;
26540;SDS011;14206;50.202;10.948;2023-05-07T04:20:45;13.30;;;10.80;;
26540;SDS011;14206;50.202;10.948;2023-05-07T04:23:14;21.15;;;15.98;;
26540;SDS011;14206;50.202;10.948;2023-05-07T04:25:41;35.42;;;25.85;;
26540;SDS011;14206;50.202;10.948;2023-05-07T04:28:30;39.83;;;29.00;;
26540;SDS011;14206;50.202;10.948;2023-05-07T04:30:57;39.08;;;28.15;;
26540;SDS011;14206;50.202;10.948;2023-05-07T04:33:25;47.47;;;33.85;;
26540;SDS011;14206;50.202;10.948;2023-05-07T04:35:53;31.77;;;23.88;;
26540;SDS011;14206;50.202;10.948;2023-05-07T04:38:20;29.88;;;23.05;;
26540;SDS011;14206;50.202;10.948;2023-05-07T04:40:49;41.10;;;27.52;;
26540;SDS011;14206;50.202;10.948;2023-05-07T04:43:20;50.38;;;30.58;;
26540;SDS011;14206;50.202;10.948;2023-05-07T04:45:52;58.33;;;33.72;;
26540;SDS011;14206;50.202;10.948;2023-05-07T04:48:21;60.25;;;37.67;;
26540;SDS011;14206;50.202;10.948;2023-05-07T04:50:50;43.15;;;28.67;;
26540;SDS011;14206;50.202;10.948;2023-05-07T04:53:18;33.40;;;23.92;;
26540;SDS011;14206;50.202;10.948;2023-05-07T04:55:45;23.83;;;18.17;;
26540;SDS011;14206;50.202;10.948;2023-05-07T04:58:12;26.48;;;20.13;;
26540;SDS011;14206;50.202;10.948;2023-05-07T05:00:41;26.20;;;20.98;;
26540;SDS011;14206;50.202;10.948;2023-05-07T05:03:09;19.40;;;16.25;;
26540;SDS011;14206;50.202;10.948;2023-05-07T05:05:38;15.10;;;12.25;;
26540;SDS011;14206;50.202;10.948;2023-05-07T05:08:05;15.45;;;13.45;;
26540;SDS011;14206;50.202;10.948;2023-05-07T05:10:35;17.10;;;14.53;;
26540;SDS011;14206;50.202;10.948;2023-05-07T05:13:01;13.18;;;11.32;;
26540;SDS011;14206;50.202;10.948;2023-05-07T05:15:29;15.98;;;13.02;;
26540;SDS011;14206;50.202;10.948;2023-05-07T05:17:59;14.43;;;11.73;;
26540;SDS011;14206;50.202;10.948;2023-05-07T05:20:26;15.43;;;12.35;;
26540;SDS011;14206;50.202;10.948;2023-05-07T05:22:54;15.05;;;12.93;;
26540;SDS011;14206;50.202;10.948;2023-05-07T05:25:20;14.68;;;12.18;;
26540;SDS011;14206;50.202;10.948;2023-05-07T05:27:47;12.20;;;10.73;;
26540;SDS011;14206;50.202;10.948;2023-05-07T05:30:15;11.90;;;10.63;;
26540;SDS011;14206;50.202;10.948;2023-05-07T05:32:44;17.58;;;13.48;;
26540;SDS011;14206;50.202;10.948;2023-05-07T05:35:11;11.32;;;9.95;;
26540;SDS011;14206;50.202;10.948;2023-05-07T05:37:39;11.75;;;9.93;;
26540;SDS011;14206;50.202;10.948;2023-05-07T05:40:06;11.43;;;9.15;;
26540;SDS011;14206;50.202;10.948;2023-05-07T05:42:34;13.13;;;11.40;;
26540;SDS011;14206;50.202;10.948;2023-05-07T05:45:01;11.70;;;10.45;;
26540;SDS011;14206;50.202;10.948;2023-05-07T05:47:31;14.00;;;11.95;;
26540;SDS011;14206;50.202;10.948;2023-05-07T05:49:58;17.00;;;13.63;;
26540;SDS011;14206;50.202;10.948;2023-05-07T05:52:25;13.32;;;11.45;;
26540;SDS011;14206;50.202;10.948;2023-05-07T05:54:53;15.27;;;12.02;;
26540;SDS011;14206;50.202;10.948;2023-05-07T05:57:21;11.13;;;9.65;;
26540;SDS011;14206;50.202;10.948;2023-05-07T05:59:47;11.75;;;9.98;;
26540;SDS011;14206;50.202;10.948;2023-05-07T06:02:14;11.88;;;9.95;;
26540;SDS011;14206;50.202;10.948;2023-05-07T06:04:42;9.77;;;8.57;;
26540;SDS011;14206;50.202;10.948;2023-05-07T06:07:11;10.77;;;8.32;;
26540;SDS011;14206;50.202;10.948;2023-05-07T06:09:38;11.60;;;9.52;;
26540;SDS011;14206;50.202;10.948;2023-05-07T06:12:05;11.40;;;9.98;;
26540;SDS011;14206;50.202;10.948;2023-05-07T06:14:32;10.10;;;9.00;;
26540;SDS011;14206;50.202;10.948;2023-05-07T06:16:59;9.85;;;8.38;;
26540;SDS011;14206;50.202;10.948;2023-05-07T06:19:26;10.02;;;7.00;;
26540;SDS011;14206;50.202;10.948;2023-05-07T06:21:55;10.80;;;8.52;;
26540;SDS011;14206;50.202;10.948;2023-05-07T06:24:24;12.80;;;10.43;;
26540;SDS011;14206;50.202;10.948;2023-05-07T06:26:50;11.13;;;9.95;;
26540;SDS011;14206;50.202;10.948;2023-05-07T06:29:17;10.73;;;9.45;;
26540;SDS011;14206;50.202;10.948;2023-05-07T06:31:45;11.95;;;10.10;;
26540;SDS011;14206;50.202;10.948;2023-05-07T06:34:12;10.50;;;8.82;;
26540;SDS011;14206;50.202;10.948;2023-05-07T06:36:42;11.95;;;10.63;;
26540;SDS011;14206;50.202;10.948;2023-05-07T06:39:44;9.35;;;8.20;;
26540;SDS011;14206;50.202;10.948;2023-05-07T06:42:11;9.63;;;7.90;;
26540;SDS011;14206;50.202;10.948;2023-05-07T06:44:41;10.07;;;8.80;;
26540;SDS011;14206;50.202;10.948;2023-05-07T06:47:11;12.38;;;10.68;;
26540;SDS011;14206;50.202;10.948;2023-05-07T06:49:41;11.70;;;10.10;;
26540;SDS011;14206;50.202;10.948;2023-05-07T06:52:08;13.55;;;9.98;;
26540;SDS011;14206;50.202;10.948;2023-05-07T06:54:35;9.35;;;8.35;;
26540;SDS011;14206;50.202;10.948;2023-05-07T06:57:01;13.18;;;10.05;;
26540;SDS011;14206;50.202;10.948;2023-05-07T06:59:29;12.00;;;10.27;;
26540;SDS011;14206;50.202;10.948;2023-05-07T07:01:56;10.07;;;8.93;;
26540;SDS011;14206;50.202;10.948;2023-05-07T07:04:23;14.20;;;10.20;;
26540;SDS011;14206;50.202;10.948;2023-05-07T07:06:59;10.85;;;9.73;;
26540;SDS011;14206;50.202;10.948;2023-05-07T07:09:27;10.48;;;9.27;;
26540;SDS011;14206;50.202;10.948;2023-05-07T07:11:53;10.32;;;9.10;;
26540;SDS011;14206;50.202;10.948;2023-05-07T07:14:21;11.90;;;10.00;;
26540;SDS011;14206;50.202;10.948;2023-05-07T07:16:50;11.07;;;9.55;;
26540;SDS011;14206;50.202;10.948;2023-05-07T07:19:18;9.35;;;8.35;;
26540;SDS011;14206;50.202;10.948;2023-05-07T07:21:48;10.35;;;8.40;;
26540;SDS011;14206;50.202;10.948;2023-05-07T07:24:16;11.77;;;8.93;;
26540;SDS011;14206;50.202;10.948;2023-05-07T07:26:50;12.35;;;9.32;;
26540;SDS011;14206;50.202;10.948;2023-05-07T07:29:18;11.00;;;9.45;;
26540;SDS011;14206;50.202;10.948;2023-05-07T07:31:46;11.15;;;9.57;;
26540;SDS011;14206;50.202;10.948;2023-05-07T07:34:14;9.48;;;8.27;;
26540;SDS011;14206;50.202;10.948;2023-05-07T07:36:42;13.98;;;10.38;;
26540;SDS011;14206;50.202;10.948;2023-05-07T07:39:15;13.15;;;11.10;;
26540;SDS011;14206;50.202;10.948;2023-05-07T07:41:43;9.30;;;7.70;;
26540;SDS011;14206;50.202;10.948;2023-05-07T07:44:11;8.80;;;7.75;;
26540;SDS011;14206;50.202;10.948;2023-05-07T07:46:43;8.50;;;7.10;;
26540;SDS011;14206;50.202;10.948;2023-05-07T07:49:10;8.80;;;7.90;;
26540;SDS011;14206;50.202;10.948;2023-05-07T07:51:37;8.10;;;6.97;;
26540;SDS011;14206;50.202;10.948;2023-05-07T07:54:04;10.52;;;9.30;;
26540;SDS011;14206;50.202;10.948;2023-05-07T07:56:33;7.45;;;6.65;;
26540;SDS011;14206;50.202;10.948;2023-05-07T07:59:01;8.65;;;7.32;;
26540;SDS011;14206;50.202;10.948;2023-05-07T08:01:29;7.80;;;6.47;;
26540;SDS011;14206;50.202;10.948;2023-05-07T08:03:57;7.63;;;6.30;;
26540;SDS011;14206;50.202;10.948;2023-05-07T08:06:26;6.97;;;6.18;;
26540;SDS011;14206;50.202;10.948;2023-05-07T08:08:54;6.97;;;6.15;;
26540;SDS011;14206;50.202;10.948;2023-05-07T08:11:21;6.85;;;6.15;;
26540;SDS011;14206;50.202;10.948;2023-05-07T08:13:49;6.03;;;5.43;;
26540;SDS011;14206;50.202;10.948;2023-05-07T08:16:17;6.22;;;5.47;;
26540;SDS011;14206;50.202;10.948;2023-05-07T08:18:44;7.72;;;6.93;;
26540;SDS011;14206;50.202;10.948;2023-05-07T08:21:11;8.00;;;6.50;;
26540;SDS011;14206;50.202;10.948;2023-05-07T08:23:38;7.15;;;6.15;;
26540;SDS011;14206;50.202;10.948;2023-05-07T08:26:07;6.05;;;5.45;;
26540;SDS011;14206;50.202;10.948;2023-05-07T08:28:35;5.07;;;4.57;;
26540;SDS011;14206;50.202;10.948;2023-05-07T08:31:02;6.82;;;6.20;;
26540;SDS011;14206;50.202;10.948;2023-05-07T08:33:33;6.80;;;6.00;;
26540;SDS011;14206;50.202;10.948;2023-05-07T08:36:00;7.10;;;6.20;;
26540;SDS011;14206;50.202;10.948;2023-05-07T08:38:27;6.50;;;5.85;;
26540;SDS011;14206;50.202;10.948;2023-05-07T08:40:54;5.05;;;4.55;;
26540;SDS011;14206;50.202;10.948;2023-05-07T08:43:21;6.88;;;4.80;;
26540;SDS011;14206;50.202;10.948;2023-05-07T08:45:49;5.68;;;5.07;;
26540;SDS011;14206;50.202;10.948;2023-05-07T08:48:24;7.53;;;5.60;;
26540;SDS011;14206;50.202;10.948;2023-05-07T08:50:59;5.90;;;5.00;;
26540;SDS011;14206;50.202;10.948;2023-05-07T08:53:26;5.75;;;4.75;;
26540;SDS011;14206;50.202;10.948;2023-05-07T08:55:54;4.90;;;4.40;;
26540;SDS011;14206;50.202;10.948;2023-05-07T08:58:21;5.93;;;5.43;;
26540;SDS011;14206;50.202;10.948;2023-05-07T09:00:48;5.78;;;5.28;;
26540;SDS011;14206;50.202;10.948;2023-05-07T09:03:18;5.43;;;4.13;;
26540;SDS011;14206;50.202;10.948;2023-05-07T09:05:49;4.30;;;3.90;;
26540;SDS011;14206;50.202;10.948;2023-05-07T09:08:17;4.28;;;3.88;;
26540;SDS011;14206;50.202;10.948;2023-05-07T09:10:46;4.20;;;3.80;;
26540;SDS011;14206;50.202;10.948;2023-05-07T09:13:15;4.13;;;3.67;;
26540;SDS011;14206;50.202;10.948;2023-05-07T09:15:44;4.15;;;3.55;;
26540;SDS011;14206;50.202;10.948;2023-05-07T09:18:12;3.90;;;3.50;;
26540;SDS011;14206;50.202;10.948;2023-05-07T09:20:43;4.45;;;3.97;;
26540;SDS011;14206;50.202;10.948;2023-05-07T09:23:10;3.90;;;3.40;;
26540;SDS011;14206;50.202;10.948;2023-05-07T09:25:37;5.05;;;4.05;;
26540;SDS011;14206;50.202;10.948;2023-05-07T09:28:14;4.00;;;3.47;;
26540;SDS011;14206;50.202;10.948;2023-05-07T09:30:41;3.53;;;3.20;;
26540;SDS011;14206;50.202;10.948;2023-05-07T09:33:10;3.65;;;3.22;;
26540;SDS011;14206;50.202;10.948;2023-05-07T09:35:40;4.13;;;2.50;;
26540;SDS011;14206;50.202;10.948;2023-05-07T09:38:13;3.33;;;3.03;;
26540;SDS011;14206;50.202;10.948;2023-05-07T09:40:40;3.15;;;2.90;;
26540;SDS011;14206;50.202;10.948;2023-05-07T09:43:13;4.43;;;3.30;;
26540;SDS011;14206;50.202;10.948;2023-05-07T09:48:19;2.75;;;2.55;;
26540;SDS011;14206;50.202;10.948;2023-05-07T09:50:49;3.25;;;2.60;;
26540;SDS011;14206;50.202;10.948;2023-05-07T09:53:24;2.97;;;2.70;;
26540;SDS011;14206;50.202;10.948;2023-05-07T09:55:53;2.40;;;2.20;;
26540;SDS011;14206;50.202;10.948;2023-05-07T09:58:21;2.78;;;2.40;;
26540;SDS011;14206;50.202;10.948;2023-05-07T10:00:50;2.83;;;2.40;;
26540;SDS011;14206;50.202;10.948;2023-05-07T10:03:18;2.83;;;2.40;;
26540;SDS011;14206;50.202;10.948;2023-05-07T10:05:58;2.53;;;2.33;;
26540;SDS011;14206;50.202;10.948;2023-05-07T10:08:26;3.15;;;2.85;;
26540;SDS011;14206;50.202;10.948;2023-05-07T10:10:56;2.63;;;2.40;;
26540;SDS011;14206;50.202;10.948;2023-05-07T10:13:26;2.75;;;2.30;;
26540;SDS011;14206;50.202;10.948;2023-05-07T10:15:56;3.05;;;2.75;;
26540;SDS011;14206;50.202;10.948;2023-05-07T10:18:27;3.17;;;2.53;;
26540;SDS011;14206;50.202;10.948;2023-05-07T10:21:07;2.80;;;2.50;;
26540;SDS011;14206;50.202;10.948;2023-05-07T10:23:36;3.35;;;3.05;;
26540;SDS011;14206;50.202;10.948;2023-05-07T10:26:05;2.55;;;2.35;;
26540;SDS011;14206;50.202;10.948;2023-05-07T10:28:39;2.70;;;2.50;;
26540;SDS011;14206;50.202;10.948;2023-05-07T10:33:44;3.80;;;2.97;;
26540;SDS011;14206;50.202;10.948;2023-05-07T10:36:14;3.72;;;3.00;;
26540;SDS011;14206;50.202;10.948;2023-05-07T10:38:41;2.80;;;2.60;;
26540;SDS011;14206;50.202;10.948;2023-05-07T10:41:09;3.05;;;2.75;;
26540;SDS011;14206;50.202;10.948;2023-05-07T10:43:41;4.13;;;3.10;;
26540;SDS011;14206;50.202;10.948;2023-05-07T10:46:16;3.25;;;2.95;;
26540;SDS011;14206;50.202;10.948;2023-05-07T10:51:47;3.10;;;2.80;;
26540;SDS011;14206;50.202;10.948;2023-05-07T10:57:50;4.22;;;3.15;;
26540;SDS011;14206;50.202;10.948;2023-05-07T11:03:09;3.10;;;2.80;;
26540;SDS011;14206;50.202;10.948;2023-05-07T11:05:45;2.88;;;2.67;;
26540;SDS011;14206;50.202;10.948;2023-05-07T11:08:22;4.20;;;3.35;;
26540;SDS011;14206;50.202;10.948;2023-05-07T11:10:59;3.30;;;2.70;;
26540;SDS011;14206;50.202;10.948;2023-05-07T11:16:19;3.85;;;3.25;;
26540;SDS011;14206;50.202;10.948;2023-05-07T11:19:00;3.05;;;2.70;;
26540;SDS011;14206;50.202;10.948;2023-05-07T11:21:37;3.97;;;3.15;;
26540;SDS011;14206;50.202;10.948;2023-05-07T11:24:14;3.10;;;2.80;;
26540;SDS011;14206;50.202;10.948;2023-05-07T11:26:48;3.85;;;2.60;;
26540;SDS011;14206;50.202;10.948;2023-05-07T11:29:19;2.85;;;2.15;;
26540;SDS011;14206;50.202;10.948;2023-05-07T11:31:52;2.38;;;2.17;;
26540;SDS011;14206;50.202;10.948;2023-05-07T11:34:23;2.92;;;2.63;;
26540;SDS011;14206;50.202;10.948;2023-05-07T11:36:54;2.80;;;2.40;;
26540;SDS011;14206;50.202;10.948;2023-05-07T11:39:33;2.65;;;2.42;;
26540;SDS011;14206;50.202;10.948;2023-05-07T11:42:02;2.15;;;1.95;;
26540;SDS011;14206;50.202;10.948;2023-05-07T11:44:42;2.22;;;2.03;;
26540;SDS011;14206;50.202;10.948;2023-05-07T11:47:10;3.13;;;2.60;;
26540;SDS011;14206;50.202;10.948;2023-05-07T11:49:37;2.10;;;1.90;;
26540;SDS011;14206;50.202;10.948;2023-05-07T11:52:04;1.70;;;1.60;;
26540;SDS011;14206;50.202;10.948;2023-05-07T11:54:37;1.83;;;1.70;;
26540;SDS011;14206;50.202;10.948;2023-05-07T11:57:04;2.75;;;2.45;;
26540;SDS011;14206;50.202;10.948;2023-05-07T11:59:38;1.90;;;1.80;;
26540;SDS011;14206;50.202;10.948;2023-05-07T12:02:06;2.33;;;2.13;;
26540;SDS011;14206;50.202;10.948;2023-05-07T12:04:34;2.10;;;1.80;;
26540;SDS011;14206;50.202;10.948;2023-05-07T12:07:01;3.00;;;1.60;;
26540;SDS011;14206;50.202;10.948;2023-05-07T12:09:28;1.83;;;1.67;;
26540;SDS011;14206;50.202;10.948;2023-05-07T12:11:55;1.70;;;1.60;;
26540;SDS011;14206;50.202;10.948;2023-05-07T12:14:26;2.75;;;1.40;;
26540;SDS011;14206;50.202;10.948;2023-05-07T12:16:55;1.65;;;1.55;;
26540;SDS011;14206;50.202;10.948;2023-05-07T12:19:22;2.45;;;1.90;;
26540;SDS011;14206;50.202;10.948;2023-05-07T12:21:49;1.73;;;1.63;;
26540;SDS011;14206;50.202;10.948;2023-05-07T12:24:17;1.98;;;1.60;;
26540;SDS011;14206;50.202;10.948;2023-05-07T12:26:47;1.40;;;1.30;;
26540;SDS011;14206;50.202;10.948;2023-05-07T12:29:14;2.22;;;1.70;;
26540;SDS011;14206;50.202;10.948;2023-05-07T12:31:41;2.53;;;1.83;;
26540;SDS011;14206;50.202;10.948;2023-05-07T12:34:12;2.85;;;1.50;;
26540;SDS011;14206;50.202;10.948;2023-05-07T12:36:39;1.63;;;1.40;;
26540;SDS011;14206;50.202;10.948;2023-05-07T12:39:07;2.53;;;1.48;;
26540;SDS011;14206;50.202;10.948;2023-05-07T12:42:11;1.98;;;1.75;;
26540;SDS011;14206;50.202;10.948;2023-05-07T12:44:31;2.20;;;1.70;;
26540;SDS011;14206;50.202;10.948;2023-05-07T12:47:02;2.05;;;1.90;;
26540;SDS011;14206;50.202;10.948;2023-05-07T12:49:29;2.63;;;1.60;;
26540;SDS011;14206;50.202;10.948;2023-05-07T12:51:56;2.00;;;1.77;;
26540;SDS011;14206;50.202;10.948;2023-05-07T12:54:30;2.78;;;1.52;;
26540;SDS011;14206;50.202;10.948;2023-05-07T12:57:02;2.22;;;1.90;;
26540;SDS011;14206;50.202;10.948;2023-05-07T12:59:34;2.10;;;1.90;;
26540;SDS011;14206;50.202;10.948;2023-05-07T13:02:03;1.58;;;1.48;;
26540;SDS011;14206;50.202;10.948;2023-05-07T13:04:30;2.25;;;1.60;;
26540;SDS011;14206;50.202;10.948;2023-05-07T13:06:57;1.70;;;1.60;;
26540;SDS011;14206;50.202;10.948;2023-05-07T13:09:25;1.60;;;1.50;;
26540;SDS011;14206;50.202;10.948;2023-05-07T13:11:52;1.83;;;1.73;;
26540;SDS011;14206;50.202;10.948;2023-05-07T13:14:19;1.92;;;1.83;;
26540;SDS011;14206;50.202;10.948;2023-05-07T13:16:47;1.85;;;1.70;;
26540;SDS011;14206;50.202;10.948;2023-05-07T13:19:14;2.05;;;1.85;;
26540;SDS011;14206;50.202;10.948;2023-05-07T13:21:41;1.75;;;1.65;;
26540;SDS011;14206;50.202;10.948;2023-05-07T13:24:08;1.60;;;1.50;;
26540;SDS011;14206;50.202;10.948;2023-05-07T13:26:35;1.90;;;1.70;;
26540;SDS011;14206;50.202;10.948;2023-05-07T13:29:02;2.10;;;1.90;;
26540;SDS011;14206;50.202;10.948;2023-05-07T13:31:28;2.40;;;2.20;;
26540;SDS011;14206;50.202;10.948;2023-05-07T13:33:57;1.50;;;1.40;;
26540;SDS011;14206;50.202;10.948;2023-05-07T13:36:23;3.65;;;2.22;;
26540;SDS011;14206;50.202;10.948;2023-05-07T13:38:50;2.30;;;2.10;;
26540;SDS011;14206;50.202;10.948;2023-05-07T13:41:18;2.28;;;2.00;;
26540;SDS011;14206;50.202;10.948;2023-05-07T13:43:44;1.75;;;1.65;;
26540;SDS011;14206;50.202;10.948;2023-05-07T13:46:11;3.00;;;1.80;;
26540;SDS011;14206;50.202;10.948;2023-05-07T13:48:38;2.50;;;2.30;;
26540;SDS011;14206;50.202;10.948;2023-05-07T13:51:05;3.35;;;2.20;;
26540;SDS011;14206;50.202;10.948;2023-05-07T13:53:32;3.25;;;2.90;;
26540;SDS011;14206;50.202;10.948;2023-05-07T13:55:59;2.53;;;2.33;;
26540;SDS011;14206;50.202;10.948;2023-05-07T13:58:25;5.07;;;4.32;;
26540;SDS011;14206;50.202;10.948;2023-05-07T14:00:52;6.47;;;5.25;;
26540;SDS011;14206;50.202;10.948;2023-05-07T14:03:19;24.95;;;21.08;;
26540;SDS011;14206;50.202;10.948;2023-05-07T14:05:46;47.30;;;38.83;;
26540;SDS011;14206;50.202;10.948;2023-05-07T14:08:15;24.73;;;21.17;;
26540;SDS011;14206;50.202;10.948;2023-05-07T14:10:44;5.85;;;5.35;;
26540;SDS011;14206;50.202;10.948;2023-05-07T14:13:12;5.68;;;4.50;;
26540;SDS011;14206;50.202;10.948;2023-05-07T14:15:39;6.60;;;4.60;;
26540;SDS011;14206;50.202;10.948;2023-05-07T14:18:06;4.72;;;4.20;;
26540;SDS011;14206;50.202;10.948;2023-05-07T14:20:33;3.83;;;3.40;;
26540;SDS011;14206;50.202;10.948;2023-05-07T14:23:02;3.83;;;3.40;;
26540;SDS011;14206;50.202;10.948;2023-05-07T14:25:29;3.47;;;3.17;;
26540;SDS011;14206;50.202;10.948;2023-05-07T14:27:56;4.43;;;3.70;;
26540;SDS011;14206;50.202;10.948;2023-05-07T14:30:23;5.88;;;4.07;;
26540;SDS011;14206;50.202;10.948;2023-05-07T14:32:50;4.20;;;3.80;;
26540;SDS011;14206;50.202;10.948;2023-05-07T14:35:17;4.43;;;4.03;;
26540;SDS011;14206;50.202;10.948;2023-05-07T14:37:44;5.25;;;4.68;;
26540;SDS011;14206;50.202;10.948;2023-05-07T14:40:11;4.30;;;3.78;;
26540;SDS011;14206;50.202;10.948;2023-05-07T14:42:39;5.53;;;4.43;;
26540;SDS011;14206;50.202;10.948;2023-05-07T14:45:06;4.70;;;4.15;;
26540;SDS011;14206;50.202;10.948;2023-05-07T14:47:34;5.28;;;4.20;;
26540;SDS011;14206;50.202;10.948;2023-05-07T14:50:01;4.43;;;3.92;;
26540;SDS011;14206;50.202;10.948;2023-05-07T14:52:28;3.95;;;3.65;;
26540;SDS011;14206;50.202;10.948;2023-05-07T14:54:54;4.72;;;4.22;;